sensor_id;sensor_type;location;lat;lon;timestamp;P1;durP1;ratioP1;P2;durP2;ratioP2
11604;SDS011;5858;43.076;25.626;2023-12-07T00:01:39;25.80;;;20.23;;
11604;SDS011;5858;43.076;25.626;2023-12-07T00:04:06;21.23;;;18.30;;
11604;SDS011;5858;43.076;25.626;2023-12-07T00:06:33;24.03;;;18.77;;
11604;SDS011;5858;43.076;25.626;2023-12-07T00:09:02;19.30;;;16.93;;
11604;SDS011;5858;43.076;25.626;2023-12-07T00:14:51;17.47;;;14.03;;
11604;SDS011;5858;43.076;25.626;2023-12-07T00:17:18;20.43;;;15.20;;
11604;SDS011;5858;43.076;25.626;2023-12-07T00:19:45;19.87;;;15.40;;
11604;SDS011;5858;43.076;25.626;2023-12-07T00:22:12;13.87;;;11.23;;
11604;SDS011;5858;43.076;25.626;2023-12-07T00:24:39;15.33;;;11.20;;
11604;SDS011;5858;43.076;25.626;2023-12-07T00:27:06;12.70;;;10.97;;
11604;SDS011;5858;43.076;25.626;2023-12-07T00:32:37;12.17;;;10.40;;
11604;SDS011;5858;43.076;25.626;2023-12-07T00:35:09;11.73;;;9.40;;
11604;SDS011;5858;43.076;25.626;2023-12-07T00:37:39;10.83;;;9.00;;
11604;SDS011;5858;43.076;25.626;2023-12-07T00:40:09;10.50;;;8.80;;
11604;SDS011;5858;43.076;25.626;2023-12-07T00:42:39;11.73;;;9.40;;
11604;SDS011;5858;43.076;25.626;2023-12-07T00:45:12;10.60;;;9.10;;
11604;SDS011;5858;43.076;25.626;2023-12-07T00:47:39;11.57;;;9.53;;
11604;SDS011;5858;43.076;25.626;2023-12-07T00:50:07;13.17;;;9.67;;
11604;SDS011;5858;43.076;25.626;2023-12-07T00:52:35;13.93;;;10.67;;
11604;SDS011;5858;43.076;25.626;2023-12-07T00:55:02;13.03;;;10.33;;
11604;SDS011;5858;43.076;25.626;2023-12-07T00:57:33;13.43;;;11.00;;
11604;SDS011;5858;43.076;25.626;2023-12-07T01:00:04;13.30;;;10.60;;
11604;SDS011;5858;43.076;25.626;2023-12-07T01:02:36;16.30;;;12.60;;
11604;SDS011;5858;43.076;25.626;2023-12-07T01:05:03;13.70;;;11.37;;
11604;SDS011;5858;43.076;25.626;2023-12-07T01:07:33;14.60;;;11.17;;
11604;SDS011;5858;43.076;25.626;2023-12-07T01:10:03;12.90;;;10.37;;
11604;SDS011;5858;43.076;25.626;2023-12-07T01:12:34;13.47;;;10.73;;
11604;SDS011;5858;43.076;25.626;2023-12-07T01:15:04;13.90;;;11.07;;
11604;SDS011;5858;43.076;25.626;2023-12-07T01:17:34;11.73;;;9.70;;
11604;SDS011;5858;43.076;25.626;2023-12-07T01:20:03;15.13;;;11.23;;
11604;SDS011;5858;43.076;25.626;2023-12-07T01:22:37;12.43;;;10.77;;
11604;SDS011;5858;43.076;25.626;2023-12-07T01:25:09;15.80;;;12.93;;
11604;SDS011;5858;43.076;25.626;2023-12-07T01:27:36;12.03;;;10.33;;
11604;SDS011;5858;43.076;25.626;2023-12-07T01:30:06;15.23;;;11.97;;
11604;SDS011;5858;43.076;25.626;2023-12-07T01:32:39;13.90;;;11.87;;
11604;SDS011;5858;43.076;25.626;2023-12-07T01:35:08;14.97;;;12.17;;
11604;SDS011;5858;43.076;25.626;2023-12-07T01:37:35;14.07;;;11.30;;
11604;SDS011;5858;43.076;25.626;2023-12-07T01:40:02;14.00;;;11.10;;
11604;SDS011;5858;43.076;25.626;2023-12-07T01:42:35;13.83;;;11.17;;
11604;SDS011;5858;43.076;25.626;2023-12-07T01:45:02;10.23;;;9.03;;
11604;SDS011;5858;43.076;25.626;2023-12-07T01:47:30;10.63;;;8.97;;
11604;SDS011;5858;43.076;25.626;2023-12-07T01:50:02;16.07;;;13.43;;
11604;SDS011;5858;43.076;25.626;2023-12-07T01:52:31;12.53;;;10.23;;
11604;SDS011;5858;43.076;25.626;2023-12-07T01:55:02;11.63;;;10.37;;
11604;SDS011;5858;43.076;25.626;2023-12-07T01:57:32;8.70;;;7.80;;
11604;SDS011;5858;43.076;25.626;2023-12-07T02:00:02;8.40;;;7.57;;
11604;SDS011;5858;43.076;25.626;2023-12-07T02:02:32;8.13;;;6.77;;
11604;SDS011;5858;43.076;25.626;2023-12-07T02:05:01;6.73;;;6.03;;
11604;SDS011;5858;43.076;25.626;2023-12-07T02:07:29;6.70;;;6.00;;
11604;SDS011;5858;43.076;25.626;2023-12-07T02:09:57;9.43;;;8.17;;
11604;SDS011;5858;43.076;25.626;2023-12-07T02:12:24;12.83;;;10.17;;
11604;SDS011;5858;43.076;25.626;2023-12-07T02:14:54;11.40;;;9.13;;
11604;SDS011;5858;43.076;25.626;2023-12-07T02:17:24;60.77;;;36.27;;
11604;SDS011;5858;43.076;25.626;2023-12-07T02:20:01;21.60;;;14.63;;
11604;SDS011;5858;43.076;25.626;2023-12-07T02:22:35;11.63;;;9.17;;
11604;SDS011;5858;43.076;25.626;2023-12-07T02:25:06;13.03;;;9.87;;
11604;SDS011;5858;43.076;25.626;2023-12-07T02:27:38;8.93;;;7.50;;
11604;SDS011;5858;43.076;25.626;2023-12-07T02:30:07;13.57;;;9.47;;
11604;SDS011;5858;43.076;25.626;2023-12-07T02:32:37;10.23;;;7.67;;
11604;SDS011;5858;43.076;25.626;2023-12-07T02:35:05;10.00;;;7.47;;
11604;SDS011;5858;43.076;25.626;2023-12-07T02:37:37;8.00;;;7.20;;
11604;SDS011;5858;43.076;25.626;2023-12-07T02:40:11;9.50;;;6.80;;
11604;SDS011;5858;43.076;25.626;2023-12-07T02:42:43;10.83;;;8.37;;
11604;SDS011;5858;43.076;25.626;2023-12-07T02:45:11;12.80;;;10.00;;
11604;SDS011;5858;43.076;25.626;2023-12-07T02:47:39;12.10;;;9.47;;
11604;SDS011;5858;43.076;25.626;2023-12-07T02:50:10;11.83;;;10.20;;
11604;SDS011;5858;43.076;25.626;2023-12-07T02:52:40;9.67;;;8.30;;
11604;SDS011;5858;43.076;25.626;2023-12-07T02:55:09;8.43;;;7.53;;
11604;SDS011;5858;43.076;25.626;2023-12-07T02:57:53;8.40;;;7.60;;
11604;SDS011;5858;43.076;25.626;2023-12-07T03:00:22;8.90;;;8.03;;
11604;SDS011;5858;43.076;25.626;2023-12-07T03:02:50;9.07;;;8.10;;
11604;SDS011;5858;43.076;25.626;2023-12-07T03:05:20;8.30;;;7.50;;
11604;SDS011;5858;43.076;25.626;2023-12-07T03:07:50;9.83;;;7.60;;
11604;SDS011;5858;43.076;25.626;2023-12-07T03:10:20;9.27;;;8.20;;
11604;SDS011;5858;43.076;25.626;2023-12-07T03:12:59;8.47;;;7.57;;
11604;SDS011;5858;43.076;25.626;2023-12-07T03:15:29;11.00;;;8.83;;
11604;SDS011;5858;43.076;25.626;2023-12-07T03:17:58;9.50;;;8.13;;
11604;SDS011;5858;43.076;25.626;2023-12-07T03:20:26;8.80;;;8.00;;
11604;SDS011;5858;43.076;25.626;2023-12-07T03:22:57;10.80;;;9.20;;
11604;SDS011;5858;43.076;25.626;2023-12-07T03:25:27;10.73;;;9.63;;
11604;SDS011;5858;43.076;25.626;2023-12-07T03:27:54;10.37;;;9.27;;
11604;SDS011;5858;43.076;25.626;2023-12-07T03:30:23;10.23;;;9.10;;
11604;SDS011;5858;43.076;25.626;2023-12-07T03:32:52;8.70;;;7.80;;
11604;SDS011;5858;43.076;25.626;2023-12-07T03:35:19;8.40;;;7.60;;
11604;SDS011;5858;43.076;25.626;2023-12-07T03:37:49;8.03;;;7.23;;
11604;SDS011;5858;43.076;25.626;2023-12-07T03:40:18;8.37;;;7.57;;
11604;SDS011;5858;43.076;25.626;2023-12-07T03:42:45;10.17;;;9.07;;
11604;SDS011;5858;43.076;25.626;2023-12-07T03:45:11;9.67;;;8.53;;
11604;SDS011;5858;43.076;25.626;2023-12-07T03:47:40;9.57;;;8.57;;
11604;SDS011;5858;43.076;25.626;2023-12-07T03:50:07;8.63;;;7.73;;
11604;SDS011;5858;43.076;25.626;2023-12-07T03:52:34;8.67;;;7.87;;
11604;SDS011;5858;43.076;25.626;2023-12-07T03:55:02;7.70;;;6.83;;
11604;SDS011;5858;43.076;25.626;2023-12-07T03:57:30;7.73;;;6.93;;
11604;SDS011;5858;43.076;25.626;2023-12-07T03:59:57;7.87;;;7.07;;
11604;SDS011;5858;43.076;25.626;2023-12-07T04:02:24;5.80;;;5.20;;
11604;SDS011;5858;43.076;25.626;2023-12-07T04:04:52;6.07;;;5.47;;
11604;SDS011;5858;43.076;25.626;2023-12-07T04:07:19;5.97;;;5.40;;
11604;SDS011;5858;43.076;25.626;2023-12-07T04:09:48;5.10;;;4.43;;
11604;SDS011;5858;43.076;25.626;2023-12-07T04:12:15;4.93;;;4.50;;
11604;SDS011;5858;43.076;25.626;2023-12-07T04:14:42;5.20;;;4.60;;
11604;SDS011;5858;43.076;25.626;2023-12-07T04:17:09;5.50;;;5.00;;
11604;SDS011;5858;43.076;25.626;2023-12-07T04:19:36;5.47;;;4.97;;
11604;SDS011;5858;43.076;25.626;2023-12-07T04:22:04;5.20;;;4.70;;
11604;SDS011;5858;43.076;25.626;2023-12-07T04:24:33;5.90;;;5.33;;
11604;SDS011;5858;43.076;25.626;2023-12-07T04:27:00;6.07;;;5.47;;
11604;SDS011;5858;43.076;25.626;2023-12-07T04:29:26;6.07;;;5.47;;
11604;SDS011;5858;43.076;25.626;2023-12-07T04:31:53;5.53;;;4.93;;
11604;SDS011;5858;43.076;25.626;2023-12-07T04:34:20;6.50;;;5.60;;
11604;SDS011;5858;43.076;25.626;2023-12-07T04:36:47;6.33;;;5.67;;
11604;SDS011;5858;43.076;25.626;2023-12-07T04:39:16;6.57;;;5.87;;
11604;SDS011;5858;43.076;25.626;2023-12-07T04:41:46;6.30;;;5.70;;
11604;SDS011;5858;43.076;25.626;2023-12-07T04:44:14;6.87;;;6.13;;
11604;SDS011;5858;43.076;25.626;2023-12-07T04:46:44;7.27;;;6.50;;
11604;SDS011;5858;43.076;25.626;2023-12-07T04:49:11;7.20;;;6.50;;
11604;SDS011;5858;43.076;25.626;2023-12-07T04:51:38;8.67;;;6.87;;
11604;SDS011;5858;43.076;25.626;2023-12-07T04:54:07;7.97;;;7.20;;
11604;SDS011;5858;43.076;25.626;2023-12-07T04:56:35;7.77;;;6.93;;
11604;SDS011;5858;43.076;25.626;2023-12-07T04:59:02;9.40;;;7.97;;
11604;SDS011;5858;43.076;25.626;2023-12-07T05:01:31;10.37;;;8.70;;
11604;SDS011;5858;43.076;25.626;2023-12-07T05:03:58;13.87;;;10.97;;
11604;SDS011;5858;43.076;25.626;2023-12-07T05:06:25;16.07;;;9.67;;
11604;SDS011;5858;43.076;25.626;2023-12-07T05:08:52;12.13;;;10.13;;
11604;SDS011;5858;43.076;25.626;2023-12-07T05:11:20;12.73;;;9.93;;
11604;SDS011;5858;43.076;25.626;2023-12-07T05:13:48;13.57;;;10.73;;
11604;SDS011;5858;43.076;25.626;2023-12-07T05:16:15;13.00;;;10.63;;
11604;SDS011;5858;43.076;25.626;2023-12-07T05:18:42;14.37;;;10.97;;
11604;SDS011;5858;43.076;25.626;2023-12-07T05:21:09;13.30;;;10.87;;
11604;SDS011;5858;43.076;25.626;2023-12-07T05:23:42;13.50;;;10.37;;
11604;SDS011;5858;43.076;25.626;2023-12-07T05:26:09;13.57;;;10.53;;
11604;SDS011;5858;43.076;25.626;2023-12-07T05:28:36;13.23;;;9.80;;
11604;SDS011;5858;43.076;25.626;2023-12-07T05:31:05;12.63;;;10.47;;
11604;SDS011;5858;43.076;25.626;2023-12-07T05:33:36;12.10;;;9.70;;
11604;SDS011;5858;43.076;25.626;2023-12-07T05:36:05;14.67;;;10.97;;
11604;SDS011;5858;43.076;25.626;2023-12-07T05:38:36;15.10;;;10.27;;
11604;SDS011;5858;43.076;25.626;2023-12-07T05:41:05;13.93;;;11.03;;
11604;SDS011;5858;43.076;25.626;2023-12-07T05:43:32;13.80;;;10.47;;
11604;SDS011;5858;43.076;25.626;2023-12-07T05:46:00;15.63;;;11.83;;
11604;SDS011;5858;43.076;25.626;2023-12-07T05:48:28;14.77;;;11.37;;
11604;SDS011;5858;43.076;25.626;2023-12-07T05:50:57;17.13;;;11.77;;
11604;SDS011;5858;43.076;25.626;2023-12-07T05:53:30;16.13;;;12.57;;
11604;SDS011;5858;43.076;25.626;2023-12-07T05:55:58;15.83;;;11.87;;
11604;SDS011;5858;43.076;25.626;2023-12-07T05:58:28;15.47;;;11.80;;
11604;SDS011;5858;43.076;25.626;2023-12-07T06:01:09;15.67;;;10.60;;
11604;SDS011;5858;43.076;25.626;2023-12-07T06:03:38;15.50;;;11.37;;
11604;SDS011;5858;43.076;25.626;2023-12-07T06:06:10;14.40;;;11.20;;
11604;SDS011;5858;43.076;25.626;2023-12-07T06:08:46;13.60;;;10.43;;
11604;SDS011;5858;43.076;25.626;2023-12-07T06:11:19;15.77;;;12.07;;
11604;SDS011;5858;43.076;25.626;2023-12-07T06:13:57;14.27;;;10.57;;
11604;SDS011;5858;43.076;25.626;2023-12-07T06:16:49;12.83;;;9.93;;
11604;SDS011;5858;43.076;25.626;2023-12-07T06:19:18;14.77;;;11.23;;
11604;SDS011;5858;43.076;25.626;2023-12-07T06:21:53;15.93;;;10.87;;
11604;SDS011;5858;43.076;25.626;2023-12-07T06:24:22;13.60;;;11.40;;
11604;SDS011;5858;43.076;25.626;2023-12-07T06:26:54;14.77;;;11.10;;
11604;SDS011;5858;43.076;25.626;2023-12-07T06:29:34;17.53;;;13.30;;
11604;SDS011;5858;43.076;25.626;2023-12-07T06:32:23;12.93;;;10.93;;
11604;SDS011;5858;43.076;25.626;2023-12-07T06:34:54;13.23;;;10.07;;
11604;SDS011;5858;43.076;25.626;2023-12-07T06:37:31;13.93;;;8.90;;
11604;SDS011;5858;43.076;25.626;2023-12-07T06:40:20;13.40;;;9.10;;
11604;SDS011;5858;43.076;25.626;2023-12-07T06:42:53;14.30;;;10.10;;
11604;SDS011;5858;43.076;25.626;2023-12-07T06:45:22;14.67;;;11.10;;
11604;SDS011;5858;43.076;25.626;2023-12-07T06:47:58;15.63;;;11.50;;
11604;SDS011;5858;43.076;25.626;2023-12-07T06:50:35;21.67;;;15.10;;
11604;SDS011;5858;43.076;25.626;2023-12-07T06:53:18;17.67;;;12.17;;
11604;SDS011;5858;43.076;25.626;2023-12-07T06:55:45;20.07;;;15.83;;
11604;SDS011;5858;43.076;25.626;2023-12-07T06:58:12;16.60;;;11.80;;
11604;SDS011;5858;43.076;25.626;2023-12-07T07:00:42;11.53;;;9.47;;
11604;SDS011;5858;43.076;25.626;2023-12-07T07:03:15;13.37;;;10.27;;
11604;SDS011;5858;43.076;25.626;2023-12-07T07:05:44;17.57;;;13.03;;
11604;SDS011;5858;43.076;25.626;2023-12-07T07:08:11;11.27;;;8.60;;
11604;SDS011;5858;43.076;25.626;2023-12-07T07:10:43;9.10;;;7.70;;
11604;SDS011;5858;43.076;25.626;2023-12-07T07:13:17;10.33;;;7.67;;
11604;SDS011;5858;43.076;25.626;2023-12-07T07:15:55;11.67;;;8.67;;
11604;SDS011;5858;43.076;25.626;2023-12-07T07:18:30;11.83;;;8.33;;
11604;SDS011;5858;43.076;25.626;2023-12-07T07:21:19;11.73;;;9.13;;
11604;SDS011;5858;43.076;25.626;2023-12-07T07:23:49;9.73;;;7.43;;
11604;SDS011;5858;43.076;25.626;2023-12-07T08:28:47;10.80;;;8.30;;
11604;SDS011;5858;43.076;25.626;2023-12-07T08:31:46;10.57;;;7.93;;
11604;SDS011;5858;43.076;25.626;2023-12-07T08:34:40;11.17;;;8.10;;
11604;SDS011;5858;43.076;25.626;2023-12-07T08:37:28;10.13;;;7.83;;
11604;SDS011;5858;43.076;25.626;2023-12-07T09:36:52;6.30;;;5.50;;
11604;SDS011;5858;43.076;25.626;2023-12-07T09:40:37;7.83;;;6.47;;
11604;SDS011;5858;43.076;25.626;2023-12-07T09:47:57;12.40;;;10.00;;
11604;SDS011;5858;43.076;25.626;2023-12-07T10:08:03;8.53;;;7.33;;
11604;SDS011;5858;43.076;25.626;2023-12-07T10:10:53;10.13;;;8.10;;
11604;SDS011;5858;43.076;25.626;2023-12-07T10:13:52;10.73;;;9.27;;
11604;SDS011;5858;43.076;25.626;2023-12-07T10:39:37;9.67;;;8.20;;
11604;SDS011;5858;43.076;25.626;2023-12-07T10:42:38;12.47;;;9.43;;
11604;SDS011;5858;43.076;25.626;2023-12-07T10:45:20;10.10;;;8.30;;
11604;SDS011;5858;43.076;25.626;2023-12-07T10:47:50;8.53;;;6.80;;
11604;SDS011;5858;43.076;25.626;2023-12-07T10:50:21;7.40;;;6.57;;
11604;SDS011;5858;43.076;25.626;2023-12-07T10:52:52;9.10;;;7.83;;
11604;SDS011;5858;43.076;25.626;2023-12-07T10:55:27;7.93;;;6.10;;
11604;SDS011;5858;43.076;25.626;2023-12-07T10:57:56;5.97;;;5.33;;
11604;SDS011;5858;43.076;25.626;2023-12-07T11:00:25;5.67;;;5.00;;
11604;SDS011;5858;43.076;25.626;2023-12-07T11:03:07;7.13;;;4.93;;
11604;SDS011;5858;43.076;25.626;2023-12-07T11:05:44;4.57;;;4.17;;
11604;SDS011;5858;43.076;25.626;2023-12-07T11:08:20;7.57;;;5.70;;
11604;SDS011;5858;43.076;25.626;2023-12-07T11:10:58;5.23;;;4.73;;
11604;SDS011;5858;43.076;25.626;2023-12-07T11:13:34;6.83;;;5.50;;
11604;SDS011;5858;43.076;25.626;2023-12-07T11:16:08;6.20;;;5.60;;
11604;SDS011;5858;43.076;25.626;2023-12-07T11:18:43;6.97;;;4.87;;
11604;SDS011;5858;43.076;25.626;2023-12-07T11:21:15;11.10;;;8.27;;
11604;SDS011;5858;43.076;25.626;2023-12-07T11:23:42;6.67;;;5.40;;
11604;SDS011;5858;43.076;25.626;2023-12-07T11:26:11;5.17;;;4.67;;
11604;SDS011;5858;43.076;25.626;2023-12-07T11:28:41;4.63;;;3.97;;
11604;SDS011;5858;43.076;25.626;2023-12-07T11:31:14;4.60;;;4.20;;
11604;SDS011;5858;43.076;25.626;2023-12-07T11:33:43;4.50;;;4.10;;
11604;SDS011;5858;43.076;25.626;2023-12-07T11:36:13;10.93;;;7.30;;
11604;SDS011;5858;43.076;25.626;2023-12-07T11:41:54;7.17;;;4.97;;
11604;SDS011;5858;43.076;25.626;2023-12-07T11:44:33;5.43;;;4.60;;
11604;SDS011;5858;43.076;25.626;2023-12-07T11:53:20;4.83;;;4.33;;
11604;SDS011;5858;43.076;25.626;2023-12-07T11:56:03;5.73;;;4.90;;
11604;SDS011;5858;43.076;25.626;2023-12-07T11:58:56;5.67;;;5.00;;
11604;SDS011;5858;43.076;25.626;2023-12-07T12:01:28;6.47;;;5.27;;
11604;SDS011;5858;43.076;25.626;2023-12-07T12:03:59;5.77;;;4.70;;
11604;SDS011;5858;43.076;25.626;2023-12-07T12:06:50;6.13;;;4.57;;
11604;SDS011;5858;43.076;25.626;2023-12-07T12:09:39;6.33;;;4.77;;
11604;SDS011;5858;43.076;25.626;2023-12-07T12:13:11;5.90;;;5.30;;
11604;SDS011;5858;43.076;25.626;2023-12-07T12:16:08;4.10;;;3.70;;
11604;SDS011;5858;43.076;25.626;2023-12-07T12:18:55;7.50;;;5.00;;
11604;SDS011;5858;43.076;25.626;2023-12-07T12:21:42;4.63;;;3.93;;
11604;SDS011;5858;43.076;25.626;2023-12-07T12:27:23;4.20;;;3.80;;
11604;SDS011;5858;43.076;25.626;2023-12-07T12:30:00;7.50;;;6.70;;
11604;SDS011;5858;43.076;25.626;2023-12-07T12:32:50;6.40;;;4.93;;
11604;SDS011;5858;43.076;25.626;2023-12-07T12:35:29;5.83;;;5.27;;
11604;SDS011;5858;43.076;25.626;2023-12-07T12:38:11;5.57;;;5.03;;
11604;SDS011;5858;43.076;25.626;2023-12-07T12:40:47;6.93;;;6.23;;
11604;SDS011;5858;43.076;25.626;2023-12-07T12:43:34;5.93;;;5.37;;
11604;SDS011;5858;43.076;25.626;2023-12-07T12:53:02;13.37;;;9.23;;
11604;SDS011;5858;43.076;25.626;2023-12-07T13:03:19;11.43;;;9.73;;
11604;SDS011;5858;43.076;25.626;2023-12-07T13:06:13;7.73;;;6.93;;
11604;SDS011;5858;43.076;25.626;2023-12-07T13:08:50;8.97;;;7.67;;
11604;SDS011;5858;43.076;25.626;2023-12-07T13:11:37;10.13;;;8.67;;
11604;SDS011;5858;43.076;25.626;2023-12-07T13:14:31;18.23;;;13.67;;
11604;SDS011;5858;43.076;25.626;2023-12-07T13:17:17;10.40;;;8.93;;
11604;SDS011;5858;43.076;25.626;2023-12-07T13:19:44;9.33;;;7.60;;
11604;SDS011;5858;43.076;25.626;2023-12-07T13:22:32;8.23;;;6.90;;
11604;SDS011;5858;43.076;25.626;2023-12-07T13:25:17;24.90;;;15.60;;
11604;SDS011;5858;43.076;25.626;2023-12-07T13:28:07;15.63;;;8.80;;
11604;SDS011;5858;43.076;25.626;2023-12-07T13:30:43;9.20;;;8.00;;
11604;SDS011;5858;43.076;25.626;2023-12-07T13:33:18;8.80;;;7.33;;
11604;SDS011;5858;43.076;25.626;2023-12-07T13:36:10;8.07;;;6.67;;
11604;SDS011;5858;43.076;25.626;2023-12-07T13:42:29;9.50;;;8.13;;
11604;SDS011;5858;43.076;25.626;2023-12-07T13:44:59;11.87;;;8.43;;
11604;SDS011;5858;43.076;25.626;2023-12-07T13:47:33;9.50;;;7.40;;
11604;SDS011;5858;43.076;25.626;2023-12-07T13:50:17;14.63;;;11.33;;
11604;SDS011;5858;43.076;25.626;2023-12-07T13:52:44;13.40;;;10.83;;
11604;SDS011;5858;43.076;25.626;2023-12-07T13:55:12;8.93;;;8.03;;
11604;SDS011;5858;43.076;25.626;2023-12-07T13:57:46;9.37;;;7.53;;
11604;SDS011;5858;43.076;25.626;2023-12-07T14:00:18;8.00;;;7.20;;
11604;SDS011;5858;43.076;25.626;2023-12-07T14:02:49;8.77;;;7.83;;
11604;SDS011;5858;43.076;25.626;2023-12-07T14:05:20;7.67;;;6.90;;
11604;SDS011;5858;43.076;25.626;2023-12-07T14:08:00;8.17;;;7.20;;
11604;SDS011;5858;43.076;25.626;2023-12-07T14:10:38;8.17;;;7.33;;
11604;SDS011;5858;43.076;25.626;2023-12-07T14:19:32;9.70;;;7.70;;
11604;SDS011;5858;43.076;25.626;2023-12-07T14:23:00;17.30;;;15.47;;
11604;SDS011;5858;43.076;25.626;2023-12-07T14:26:17;12.10;;;10.73;;
11604;SDS011;5858;43.076;25.626;2023-12-07T14:28:48;9.40;;;7.70;;
11604;SDS011;5858;43.076;25.626;2023-12-07T14:31:15;10.07;;;8.03;;
11604;SDS011;5858;43.076;25.626;2023-12-07T14:40:00;8.73;;;7.80;;
11604;SDS011;5858;43.076;25.626;2023-12-07T14:42:50;9.10;;;8.20;;
11604;SDS011;5858;43.076;25.626;2023-12-07T14:45:38;11.30;;;7.93;;
11604;SDS011;5858;43.076;25.626;2023-12-07T14:48:34;8.57;;;6.43;;
11604;SDS011;5858;43.076;25.626;2023-12-07T14:51:19;9.80;;;8.80;;
11604;SDS011;5858;43.076;25.626;2023-12-07T14:54:38;9.40;;;8.50;;
11604;SDS011;5858;43.076;25.626;2023-12-07T14:57:34;12.80;;;10.83;;
11604;SDS011;5858;43.076;25.626;2023-12-07T15:00:33;9.53;;;8.00;;
11604;SDS011;5858;43.076;25.626;2023-12-07T15:03:03;9.03;;;8.07;;
11604;SDS011;5858;43.076;25.626;2023-12-07T15:05:54;12.13;;;10.37;;
11604;SDS011;5858;43.076;25.626;2023-12-07T15:08:22;11.93;;;10.70;;
11604;SDS011;5858;43.076;25.626;2023-12-07T15:10:49;10.13;;;9.13;;
11604;SDS011;5858;43.076;25.626;2023-12-07T15:16:16;11.27;;;10.07;;
11604;SDS011;5858;43.076;25.626;2023-12-07T15:18:50;12.80;;;10.27;;
11604;SDS011;5858;43.076;25.626;2023-12-07T15:21:22;12.40;;;9.30;;
11604;SDS011;5858;43.076;25.626;2023-12-07T15:23:53;10.80;;;9.67;;
11604;SDS011;5858;43.076;25.626;2023-12-07T15:26:21;15.33;;;11.97;;
11604;SDS011;5858;43.076;25.626;2023-12-07T15:28:58;12.43;;;10.80;;
11604;SDS011;5858;43.076;25.626;2023-12-07T15:31:25;14.13;;;11.10;;
11604;SDS011;5858;43.076;25.626;2023-12-07T15:33:59;15.83;;;13.07;;
11604;SDS011;5858;43.076;25.626;2023-12-07T15:36:29;12.90;;;11.57;;
11604;SDS011;5858;43.076;25.626;2023-12-07T15:38:58;11.17;;;9.43;;
11604;SDS011;5858;43.076;25.626;2023-12-07T15:41:27;11.20;;;8.47;;
11604;SDS011;5858;43.076;25.626;2023-12-07T15:43:58;14.37;;;11.60;;
11604;SDS011;5858;43.076;25.626;2023-12-07T15:46:30;12.73;;;10.27;;
11604;SDS011;5858;43.076;25.626;2023-12-07T15:49:01;24.13;;;15.23;;
11604;SDS011;5858;43.076;25.626;2023-12-07T15:51:29;11.67;;;10.17;;
11604;SDS011;5858;43.076;25.626;2023-12-07T15:53:58;15.57;;;11.77;;
11604;SDS011;5858;43.076;25.626;2023-12-07T15:56:41;11.83;;;9.33;;
11604;SDS011;5858;43.076;25.626;2023-12-07T15:59:12;13.40;;;10.73;;
11604;SDS011;5858;43.076;25.626;2023-12-07T16:01:39;9.97;;;8.97;;
11604;SDS011;5858;43.076;25.626;2023-12-07T16:04:06;10.47;;;8.23;;
11604;SDS011;5858;43.076;25.626;2023-12-07T16:06:36;9.67;;;8.57;;
11604;SDS011;5858;43.076;25.626;2023-12-07T16:09:04;9.43;;;8.43;;
11604;SDS011;5858;43.076;25.626;2023-12-07T16:11:31;8.13;;;7.30;;
11604;SDS011;5858;43.076;25.626;2023-12-07T16:13:58;7.30;;;6.60;;
11604;SDS011;5858;43.076;25.626;2023-12-07T16:16:27;9.87;;;8.80;;
11604;SDS011;5858;43.076;25.626;2023-12-07T16:18:53;10.03;;;8.83;;
11604;SDS011;5858;43.076;25.626;2023-12-07T16:21:20;14.13;;;11.00;;
11604;SDS011;5858;43.076;25.626;2023-12-07T16:23:49;16.13;;;12.73;;
11604;SDS011;5858;43.076;25.626;2023-12-07T16:26:18;11.70;;;9.93;;
11604;SDS011;5858;43.076;25.626;2023-12-07T16:28:44;9.27;;;8.20;;
11604;SDS011;5858;43.076;25.626;2023-12-07T16:31:12;11.60;;;10.20;;
11604;SDS011;5858;43.076;25.626;2023-12-07T16:33:40;10.83;;;8.33;;
11604;SDS011;5858;43.076;25.626;2023-12-07T16:36:13;11.73;;;10.20;;
11604;SDS011;5858;43.076;25.626;2023-12-07T16:38:41;10.47;;;8.90;;
11604;SDS011;5858;43.076;25.626;2023-12-07T16:41:08;16.63;;;13.37;;
11604;SDS011;5858;43.076;25.626;2023-12-07T16:43:36;9.63;;;8.63;;
11604;SDS011;5858;43.076;25.626;2023-12-07T16:46:05;8.30;;;7.50;;
11604;SDS011;5858;43.076;25.626;2023-12-07T16:48:33;10.57;;;9.40;;
11604;SDS011;5858;43.076;25.626;2023-12-07T16:51:10;17.83;;;13.80;;
11604;SDS011;5858;43.076;25.626;2023-12-07T16:56:33;20.17;;;15.97;;
11604;SDS011;5858;43.076;25.626;2023-12-07T16:59:05;16.73;;;12.90;;
11604;SDS011;5858;43.076;25.626;2023-12-07T17:01:33;13.93;;;11.53;;
11604;SDS011;5858;43.076;25.626;2023-12-07T17:04:01;14.40;;;12.87;;
11604;SDS011;5858;43.076;25.626;2023-12-07T17:06:40;17.37;;;15.23;;
11604;SDS011;5858;43.076;25.626;2023-12-07T17:09:22;17.07;;;14.17;;
11604;SDS011;5858;43.076;25.626;2023-12-07T17:11:49;78.57;;;37.87;;
11604;SDS011;5858;43.076;25.626;2023-12-07T17:14:17;34.60;;;22.57;;
11604;SDS011;5858;43.076;25.626;2023-12-07T17:16:44;21.23;;;16.50;;
11604;SDS011;5858;43.076;25.626;2023-12-07T17:19:13;14.13;;;11.80;;
11604;SDS011;5858;43.076;25.626;2023-12-07T17:21:43;23.63;;;21.20;;
11604;SDS011;5858;43.076;25.626;2023-12-07T17:24:10;16.67;;;13.57;;
11604;SDS011;5858;43.076;25.626;2023-12-07T17:26:39;18.43;;;14.53;;
11604;SDS011;5858;43.076;25.626;2023-12-07T17:29:08;22.70;;;17.20;;
11604;SDS011;5858;43.076;25.626;2023-12-07T17:31:35;20.20;;;14.53;;
11604;SDS011;5858;43.076;25.626;2023-12-07T17:34:03;18.10;;;14.50;;
11604;SDS011;5858;43.076;25.626;2023-12-07T17:36:32;17.63;;;13.57;;
11604;SDS011;5858;43.076;25.626;2023-12-07T17:39:00;22.53;;;16.47;;
11604;SDS011;5858;43.076;25.626;2023-12-07T17:41:27;19.03;;;15.80;;
11604;SDS011;5858;43.076;25.626;2023-12-07T17:43:55;16.83;;;13.73;;
11604;SDS011;5858;43.076;25.626;2023-12-07T17:46:26;19.43;;;14.57;;
11604;SDS011;5858;43.076;25.626;2023-12-07T17:48:53;19.80;;;14.13;;
11604;SDS011;5858;43.076;25.626;2023-12-07T17:51:20;15.27;;;11.07;;
11604;SDS011;5858;43.076;25.626;2023-12-07T17:53:53;16.30;;;12.80;;
11604;SDS011;5858;43.076;25.626;2023-12-07T17:56:21;18.03;;;14.40;;
11604;SDS011;5858;43.076;25.626;2023-12-07T17:58:50;20.33;;;12.90;;
11604;SDS011;5858;43.076;25.626;2023-12-07T18:01:21;14.73;;;12.07;;
11604;SDS011;5858;43.076;25.626;2023-12-07T18:03:56;17.43;;;12.43;;
11604;SDS011;5858;43.076;25.626;2023-12-07T18:06:27;15.20;;;12.23;;
11604;SDS011;5858;43.076;25.626;2023-12-07T18:08:58;12.63;;;10.77;;
11604;SDS011;5858;43.076;25.626;2023-12-07T18:11:25;11.77;;;10.40;;
11604;SDS011;5858;43.076;25.626;2023-12-07T18:13:55;9.77;;;8.63;;
11604;SDS011;5858;43.076;25.626;2023-12-07T18:16:27;9.03;;;8.13;;
11604;SDS011;5858;43.076;25.626;2023-12-07T18:18:54;9.17;;;8.27;;
11604;SDS011;5858;43.076;25.626;2023-12-07T18:21:38;9.83;;;8.30;;
11604;SDS011;5858;43.076;25.626;2023-12-07T18:24:18;11.27;;;10.07;;
11604;SDS011;5858;43.076;25.626;2023-12-07T18:27:15;11.83;;;10.27;;
11604;SDS011;5858;43.076;25.626;2023-12-07T18:29:45;12.37;;;9.73;;
11604;SDS011;5858;43.076;25.626;2023-12-07T18:32:15;11.07;;;8.83;;
11604;SDS011;5858;43.076;25.626;2023-12-07T18:34:46;9.40;;;7.87;;
11604;SDS011;5858;43.076;25.626;2023-12-07T18:37:18;13.10;;;10.47;;
11604;SDS011;5858;43.076;25.626;2023-12-07T18:40:10;9.03;;;7.63;;
11604;SDS011;5858;43.076;25.626;2023-12-07T18:49:07;7.23;;;6.10;;
11604;SDS011;5858;43.076;25.626;2023-12-07T18:51:34;7.57;;;6.77;;
11604;SDS011;5858;43.076;25.626;2023-12-07T18:54:01;8.13;;;7.23;;
11604;SDS011;5858;43.076;25.626;2023-12-07T18:56:31;6.57;;;5.87;;